Terminal Aerodrome Forecast
Issued by NWS

Home | Current Version | Previous Version | Text Only | Print | Product List | Glossary On
Versions: 1 2 3 4 5 6 7 8 9 10 11 12 13 14 15 16 17 18 19 20 21 22 23 24 25 26 27 28 29 30 31 32 33 34 35 36 37 38 39 40 41 42 43 44 45 46 47 48
000
FTUS43 KMKX 230520
TAFENW
TAF
KENW 230520Z 2306/2406 21009KT 6SM BR SCT018 OVC035
     FM230800 20009KT 5SM BR OVC020
     FM231100 19009KT 5SM -DZ BR OVC010
     FM231800 18012G20KT 2SM -RA BR OVC008
     FM232000 17012KT 3/4SM RA BR OVC003
     FM240200 13007KT 1SM RA BR OVC003=

USA.gov is the U.S. government's official web portal to all federal, state and local government web resources and services.